sensor_id;sensor_type;location;lat;lon;timestamp;P1;durP1;ratioP1;P2;durP2;ratioP2
2416;SDS011;1219;48.736;9.330;2022-11-20T00:00:04;5.77;;;4.77;;
2416;SDS011;1219;48.736;9.330;2022-11-20T00:02:30;5.70;;;5.20;;
2416;SDS011;1219;48.736;9.330;2022-11-20T00:04:56;6.00;;;5.03;;
2416;SDS011;1219;48.736;9.330;2022-11-20T00:07:22;5.20;;;4.80;;
2416;SDS011;1219;48.736;9.330;2022-11-20T00:09:48;4.53;;;3.93;;
2416;SDS011;1219;48.736;9.330;2022-11-20T00:12:14;4.60;;;4.00;;
2416;SDS011;1219;48.736;9.330;2022-11-20T00:14:41;4.90;;;4.60;;
2416;SDS011;1219;48.736;9.330;2022-11-20T00:17:06;4.37;;;3.97;;
2416;SDS011;1219;48.736;9.330;2022-11-20T00:19:32;4.67;;;4.37;;
2416;SDS011;1219;48.736;9.330;2022-11-20T00:21:58;4.97;;;4.50;;
2416;SDS011;1219;48.736;9.330;2022-11-20T00:24:24;5.00;;;4.60;;
2416;SDS011;1219;48.736;9.330;2022-11-20T00:26:50;5.00;;;4.70;;
2416;SDS011;1219;48.736;9.330;2022-11-20T00:29:16;4.63;;;4.23;;
2416;SDS011;1219;48.736;9.330;2022-11-20T00:31:42;4.27;;;3.93;;
2416;SDS011;1219;48.736;9.330;2022-11-20T00:34:09;4.93;;;4.53;;
2416;SDS011;1219;48.736;9.330;2022-11-20T00:36:35;5.00;;;4.10;;
2416;SDS011;1219;48.736;9.330;2022-11-20T00:39:01;5.03;;;4.47;;
2416;SDS011;1219;48.736;9.330;2022-11-20T00:41:27;4.70;;;4.30;;
2416;SDS011;1219;48.736;9.330;2022-11-20T00:43:54;5.23;;;4.83;;
2416;SDS011;1219;48.736;9.330;2022-11-20T00:46:21;5.50;;;5.00;;
2416;SDS011;1219;48.736;9.330;2022-11-20T00:48:47;4.70;;;4.13;;
2416;SDS011;1219;48.736;9.330;2022-11-20T00:51:14;3.90;;;3.20;;
2416;SDS011;1219;48.736;9.330;2022-11-20T00:53:41;4.13;;;3.83;;
2416;SDS011;1219;48.736;9.330;2022-11-20T00:56:09;4.40;;;3.97;;
2416;SDS011;1219;48.736;9.330;2022-11-20T00:58:36;4.83;;;4.40;;
2416;SDS011;1219;48.736;9.330;2022-11-20T01:01:03;7.00;;;4.90;;
2416;SDS011;1219;48.736;9.330;2022-11-20T01:03:30;5.20;;;4.10;;
2416;SDS011;1219;48.736;9.330;2022-11-20T01:05:59;5.13;;;4.23;;
2416;SDS011;1219;48.736;9.330;2022-11-20T01:08:28;4.07;;;3.73;;
2416;SDS011;1219;48.736;9.330;2022-11-20T01:10:58;3.73;;;3.43;;
2416;SDS011;1219;48.736;9.330;2022-11-20T01:13:24;4.23;;;3.83;;
2416;SDS011;1219;48.736;9.330;2022-11-20T01:16:06;5.67;;;4.90;;
2416;SDS011;1219;48.736;9.330;2022-11-20T01:18:32;3.80;;;3.17;;
2416;SDS011;1219;48.736;9.330;2022-11-20T01:21:03;4.10;;;3.80;;
2416;SDS011;1219;48.736;9.330;2022-11-20T01:23:30;4.37;;;4.03;;
2416;SDS011;1219;48.736;9.330;2022-11-20T01:25:56;4.00;;;3.20;;
2416;SDS011;1219;48.736;9.330;2022-11-20T01:28:22;3.50;;;3.20;;
2416;SDS011;1219;48.736;9.330;2022-11-20T01:30:48;3.87;;;3.60;;
2416;SDS011;1219;48.736;9.330;2022-11-20T01:33:14;3.47;;;3.17;;
2416;SDS011;1219;48.736;9.330;2022-11-20T01:35:40;3.03;;;2.83;;
2416;SDS011;1219;48.736;9.330;2022-11-20T01:38:06;3.50;;;3.27;;
2416;SDS011;1219;48.736;9.330;2022-11-20T01:40:32;3.67;;;3.37;;
2416;SDS011;1219;48.736;9.330;2022-11-20T01:43:01;3.30;;;3.07;;
2416;SDS011;1219;48.736;9.330;2022-11-20T01:48:13;2.83;;;2.63;;
2416;SDS011;1219;48.736;9.330;2022-11-20T01:50:39;3.60;;;3.30;;
2416;SDS011;1219;48.736;9.330;2022-11-20T01:53:07;3.50;;;3.30;;
2416;SDS011;1219;48.736;9.330;2022-11-20T01:55:34;2.93;;;2.73;;
2416;SDS011;1219;48.736;9.330;2022-11-20T01:58:01;3.23;;;2.97;;
2416;SDS011;1219;48.736;9.330;2022-11-20T02:00:28;3.83;;;2.90;;
2416;SDS011;1219;48.736;9.330;2022-11-20T02:02:56;3.10;;;2.90;;
2416;SDS011;1219;48.736;9.330;2022-11-20T02:07:57;3.50;;;3.20;;
2416;SDS011;1219;48.736;9.330;2022-11-20T02:10:24;4.00;;;3.70;;
2416;SDS011;1219;48.736;9.330;2022-11-20T02:12:51;3.10;;;2.80;;
2416;SDS011;1219;48.736;9.330;2022-11-20T02:15:36;2.80;;;2.60;;
2416;SDS011;1219;48.736;9.330;2022-11-20T02:18:01;2.90;;;2.70;;
2416;SDS011;1219;48.736;9.330;2022-11-20T02:20:28;3.07;;;2.87;;
2416;SDS011;1219;48.736;9.330;2022-11-20T02:22:55;3.43;;;3.13;;
2416;SDS011;1219;48.736;9.330;2022-11-20T02:25:22;2.77;;;2.60;;
2416;SDS011;1219;48.736;9.330;2022-11-20T02:27:50;3.37;;;3.17;;
2416;SDS011;1219;48.736;9.330;2022-11-20T02:30:16;3.00;;;2.80;;
2416;SDS011;1219;48.736;9.330;2022-11-20T02:32:42;3.33;;;3.03;;
2416;SDS011;1219;48.736;9.330;2022-11-20T02:35:09;3.30;;;3.00;;
2416;SDS011;1219;48.736;9.330;2022-11-20T02:37:36;3.80;;;3.50;;
2416;SDS011;1219;48.736;9.330;2022-11-20T02:40:03;3.83;;;3.60;;
2416;SDS011;1219;48.736;9.330;2022-11-20T02:42:29;3.10;;;2.77;;
2416;SDS011;1219;48.736;9.330;2022-11-20T02:44:55;3.47;;;3.27;;
2416;SDS011;1219;48.736;9.330;2022-11-20T02:47:21;3.47;;;3.17;;
2416;SDS011;1219;48.736;9.330;2022-11-20T02:49:47;4.20;;;4.00;;
2416;SDS011;1219;48.736;9.330;2022-11-20T02:52:13;5.27;;;3.33;;
2416;SDS011;1219;48.736;9.330;2022-11-20T02:54:39;3.30;;;3.10;;
2416;SDS011;1219;48.736;9.330;2022-11-20T02:57:05;3.80;;;3.50;;
2416;SDS011;1219;48.736;9.330;2022-11-20T02:59:31;4.03;;;3.83;;
2416;SDS011;1219;48.736;9.330;2022-11-20T03:01:56;5.00;;;3.37;;
2416;SDS011;1219;48.736;9.330;2022-11-20T03:04:22;4.40;;;3.23;;
2416;SDS011;1219;48.736;9.330;2022-11-20T03:06:48;3.73;;;3.43;;
2416;SDS011;1219;48.736;9.330;2022-11-20T03:09:14;3.67;;;3.33;;
2416;SDS011;1219;48.736;9.330;2022-11-20T03:11:40;5.83;;;3.60;;
2416;SDS011;1219;48.736;9.330;2022-11-20T03:14:06;3.23;;;3.03;;
2416;SDS011;1219;48.736;9.330;2022-11-20T03:16:32;4.03;;;3.73;;
2416;SDS011;1219;48.736;9.330;2022-11-20T03:18:58;4.07;;;3.77;;
2416;SDS011;1219;48.736;9.330;2022-11-20T03:21:24;3.67;;;3.47;;
2416;SDS011;1219;48.736;9.330;2022-11-20T03:23:50;4.17;;;3.70;;
2416;SDS011;1219;48.736;9.330;2022-11-20T03:26:20;4.13;;;3.83;;
2416;SDS011;1219;48.736;9.330;2022-11-20T03:28:53;3.93;;;3.53;;
2416;SDS011;1219;48.736;9.330;2022-11-20T03:31:21;3.93;;;3.63;;
2416;SDS011;1219;48.736;9.330;2022-11-20T03:33:47;5.13;;;3.77;;
2416;SDS011;1219;48.736;9.330;2022-11-20T03:36:13;3.87;;;3.57;;
2416;SDS011;1219;48.736;9.330;2022-11-20T03:38:40;4.30;;;3.80;;
2416;SDS011;1219;48.736;9.330;2022-11-20T03:41:07;3.77;;;2.97;;
2416;SDS011;1219;48.736;9.330;2022-11-20T03:43:33;4.50;;;4.10;;
2416;SDS011;1219;48.736;9.330;2022-11-20T03:45:59;3.20;;;2.77;;
2416;SDS011;1219;48.736;9.330;2022-11-20T03:48:26;4.57;;;4.17;;
2416;SDS011;1219;48.736;9.330;2022-11-20T03:50:52;4.40;;;4.00;;
2416;SDS011;1219;48.736;9.330;2022-11-20T03:53:18;3.83;;;3.53;;
2416;SDS011;1219;48.736;9.330;2022-11-20T03:55:44;3.53;;;3.30;;
2416;SDS011;1219;48.736;9.330;2022-11-20T03:58:10;3.90;;;3.60;;
2416;SDS011;1219;48.736;9.330;2022-11-20T04:00:38;4.00;;;3.70;;
2416;SDS011;1219;48.736;9.330;2022-11-20T04:03:04;3.17;;;2.97;;
2416;SDS011;1219;48.736;9.330;2022-11-20T04:05:30;3.67;;;3.40;;
2416;SDS011;1219;48.736;9.330;2022-11-20T04:07:56;5.23;;;4.73;;
2416;SDS011;1219;48.736;9.330;2022-11-20T04:10:22;3.33;;;3.13;;
2416;SDS011;1219;48.736;9.330;2022-11-20T04:12:48;4.30;;;3.87;;
2416;SDS011;1219;48.736;9.330;2022-11-20T04:15:14;3.50;;;3.30;;
2416;SDS011;1219;48.736;9.330;2022-11-20T04:17:40;4.00;;;3.60;;
2416;SDS011;1219;48.736;9.330;2022-11-20T04:20:06;3.80;;;3.50;;
2416;SDS011;1219;48.736;9.330;2022-11-20T04:22:32;3.77;;;3.47;;
2416;SDS011;1219;48.736;9.330;2022-11-20T04:24:58;4.37;;;4.07;;
2416;SDS011;1219;48.736;9.330;2022-11-20T04:27:24;4.13;;;3.73;;
2416;SDS011;1219;48.736;9.330;2022-11-20T04:29:50;2.77;;;2.57;;
2416;SDS011;1219;48.736;9.330;2022-11-20T04:32:16;3.40;;;3.10;;
2416;SDS011;1219;48.736;9.330;2022-11-20T04:34:42;3.23;;;2.93;;
2416;SDS011;1219;48.736;9.330;2022-11-20T04:37:08;3.60;;;3.30;;
2416;SDS011;1219;48.736;9.330;2022-11-20T04:39:34;3.13;;;2.93;;
2416;SDS011;1219;48.736;9.330;2022-11-20T04:42:00;3.43;;;3.13;;
2416;SDS011;1219;48.736;9.330;2022-11-20T04:44:44;3.57;;;3.27;;
2416;SDS011;1219;48.736;9.330;2022-11-20T04:47:10;3.73;;;3.43;;
2416;SDS011;1219;48.736;9.330;2022-11-20T04:49:36;4.70;;;2.93;;
2416;SDS011;1219;48.736;9.330;2022-11-20T04:52:02;3.17;;;2.87;;
2416;SDS011;1219;48.736;9.330;2022-11-20T04:54:28;3.87;;;3.50;;
2416;SDS011;1219;48.736;9.330;2022-11-20T04:56:54;3.10;;;2.90;;
2416;SDS011;1219;48.736;9.330;2022-11-20T04:59:20;3.50;;;3.20;;
2416;SDS011;1219;48.736;9.330;2022-11-20T05:01:46;4.07;;;3.37;;
2416;SDS011;1219;48.736;9.330;2022-11-20T05:04:12;3.37;;;3.17;;
2416;SDS011;1219;48.736;9.330;2022-11-20T05:06:38;3.30;;;3.10;;
2416;SDS011;1219;48.736;9.330;2022-11-20T05:09:04;3.40;;;3.17;;
2416;SDS011;1219;48.736;9.330;2022-11-20T05:11:31;3.27;;;3.03;;
2416;SDS011;1219;48.736;9.330;2022-11-20T05:13:58;4.60;;;3.33;;
2416;SDS011;1219;48.736;9.330;2022-11-20T05:16:25;2.80;;;2.60;;
2416;SDS011;1219;48.736;9.330;2022-11-20T05:18:52;3.20;;;2.90;;
2416;SDS011;1219;48.736;9.330;2022-11-20T05:21:19;2.80;;;2.60;;
2416;SDS011;1219;48.736;9.330;2022-11-20T05:23:45;2.90;;;2.70;;
2416;SDS011;1219;48.736;9.330;2022-11-20T05:26:13;2.93;;;2.67;;
2416;SDS011;1219;48.736;9.330;2022-11-20T05:28:39;3.30;;;3.00;;
2416;SDS011;1219;48.736;9.330;2022-11-20T05:31:06;4.27;;;3.20;;
2416;SDS011;1219;48.736;9.330;2022-11-20T05:33:33;2.77;;;2.57;;
2416;SDS011;1219;48.736;9.330;2022-11-20T05:35:59;3.13;;;2.93;;
2416;SDS011;1219;48.736;9.330;2022-11-20T05:38:25;2.90;;;2.70;;
2416;SDS011;1219;48.736;9.330;2022-11-20T05:40:51;2.70;;;2.50;;
2416;SDS011;1219;48.736;9.330;2022-11-20T05:43:17;2.80;;;2.70;;
2416;SDS011;1219;48.736;9.330;2022-11-20T05:45:51;2.90;;;2.70;;
2416;SDS011;1219;48.736;9.330;2022-11-20T05:48:16;2.63;;;2.43;;
2416;SDS011;1219;48.736;9.330;2022-11-20T05:50:42;2.60;;;2.40;;
2416;SDS011;1219;48.736;9.330;2022-11-20T05:53:08;2.80;;;2.60;;
2416;SDS011;1219;48.736;9.330;2022-11-20T05:55:34;2.87;;;2.67;;
2416;SDS011;1219;48.736;9.330;2022-11-20T05:58:00;3.30;;;3.10;;
2416;SDS011;1219;48.736;9.330;2022-11-20T06:00:26;2.53;;;2.33;;
2416;SDS011;1219;48.736;9.330;2022-11-20T06:02:52;2.93;;;2.73;;
2416;SDS011;1219;48.736;9.330;2022-11-20T06:05:18;4.07;;;2.97;;
2416;SDS011;1219;48.736;9.330;2022-11-20T06:07:44;3.00;;;2.80;;
2416;SDS011;1219;48.736;9.330;2022-11-20T06:10:10;2.67;;;2.47;;
2416;SDS011;1219;48.736;9.330;2022-11-20T06:12:36;2.70;;;2.50;;
2416;SDS011;1219;48.736;9.330;2022-11-20T06:15:03;2.87;;;2.67;;
2416;SDS011;1219;48.736;9.330;2022-11-20T06:17:29;2.80;;;2.60;;
2416;SDS011;1219;48.736;9.330;2022-11-20T06:19:55;3.23;;;3.00;;
2416;SDS011;1219;48.736;9.330;2022-11-20T06:22:21;2.20;;;2.10;;
2416;SDS011;1219;48.736;9.330;2022-11-20T06:24:47;4.20;;;2.47;;
2416;SDS011;1219;48.736;9.330;2022-11-20T06:27:13;3.10;;;2.70;;
2416;SDS011;1219;48.736;9.330;2022-11-20T06:29:39;3.20;;;2.90;;
2416;SDS011;1219;48.736;9.330;2022-11-20T06:32:05;3.40;;;2.73;;
2416;SDS011;1219;48.736;9.330;2022-11-20T06:34:31;3.40;;;3.10;;
2416;SDS011;1219;48.736;9.330;2022-11-20T06:36:56;3.13;;;2.93;;
2416;SDS011;1219;48.736;9.330;2022-11-20T06:39:22;2.30;;;2.10;;
2416;SDS011;1219;48.736;9.330;2022-11-20T06:41:48;2.73;;;2.53;;
2416;SDS011;1219;48.736;9.330;2022-11-20T06:44:14;5.40;;;2.47;;
2416;SDS011;1219;48.736;9.330;2022-11-20T06:46:40;5.00;;;3.73;;
2416;SDS011;1219;48.736;9.330;2022-11-20T06:49:06;2.60;;;2.40;;
2416;SDS011;1219;48.736;9.330;2022-11-20T06:51:32;3.17;;;2.97;;
2416;SDS011;1219;48.736;9.330;2022-11-20T06:53:58;3.40;;;3.20;;
2416;SDS011;1219;48.736;9.330;2022-11-20T06:56:25;2.63;;;2.53;;
2416;SDS011;1219;48.736;9.330;2022-11-20T06:58:51;2.70;;;2.50;;
2416;SDS011;1219;48.736;9.330;2022-11-20T07:01:17;2.70;;;2.50;;
2416;SDS011;1219;48.736;9.330;2022-11-20T07:03:44;3.63;;;2.90;;
2416;SDS011;1219;48.736;9.330;2022-11-20T07:06:10;3.40;;;2.73;;
2416;SDS011;1219;48.736;9.330;2022-11-20T07:08:36;2.60;;;2.40;;
2416;SDS011;1219;48.736;9.330;2022-11-20T07:11:03;2.63;;;2.43;;
2416;SDS011;1219;48.736;9.330;2022-11-20T07:13:30;3.80;;;3.03;;
2416;SDS011;1219;48.736;9.330;2022-11-20T07:16:00;2.80;;;2.60;;
2416;SDS011;1219;48.736;9.330;2022-11-20T07:18:26;4.90;;;3.10;;
2416;SDS011;1219;48.736;9.330;2022-11-20T07:20:52;2.70;;;2.50;;
2416;SDS011;1219;48.736;9.330;2022-11-20T07:23:18;2.90;;;2.70;;
2416;SDS011;1219;48.736;9.330;2022-11-20T07:25:44;3.30;;;3.00;;
2416;SDS011;1219;48.736;9.330;2022-11-20T07:28:10;3.20;;;2.83;;
2416;SDS011;1219;48.736;9.330;2022-11-20T07:30:36;2.93;;;2.60;;
2416;SDS011;1219;48.736;9.330;2022-11-20T07:33:02;2.70;;;2.50;;
2416;SDS011;1219;48.736;9.330;2022-11-20T07:35:28;3.10;;;2.90;;
2416;SDS011;1219;48.736;9.330;2022-11-20T07:37:54;3.30;;;3.00;;
2416;SDS011;1219;48.736;9.330;2022-11-20T07:40:20;2.50;;;2.30;;
2416;SDS011;1219;48.736;9.330;2022-11-20T07:42:47;3.30;;;3.00;;
2416;SDS011;1219;48.736;9.330;2022-11-20T07:45:13;3.10;;;2.90;;
2416;SDS011;1219;48.736;9.330;2022-11-20T07:47:39;2.30;;;2.20;;
2416;SDS011;1219;48.736;9.330;2022-11-20T07:50:05;2.70;;;2.50;;
2416;SDS011;1219;48.736;9.330;2022-11-20T07:52:31;2.40;;;2.30;;
2416;SDS011;1219;48.736;9.330;2022-11-20T07:54:57;2.77;;;2.47;;
2416;SDS011;1219;48.736;9.330;2022-11-20T07:57:23;3.17;;;2.70;;
2416;SDS011;1219;48.736;9.330;2022-11-20T07:59:49;2.53;;;2.33;;
2416;SDS011;1219;48.736;9.330;2022-11-20T08:02:14;2.50;;;2.30;;
2416;SDS011;1219;48.736;9.330;2022-11-20T08:04:40;3.33;;;3.00;;
2416;SDS011;1219;48.736;9.330;2022-11-20T08:07:06;4.83;;;2.30;;
2416;SDS011;1219;48.736;9.330;2022-11-20T08:09:32;2.50;;;2.40;;
2416;SDS011;1219;48.736;9.330;2022-11-20T08:11:58;2.90;;;2.70;;
2416;SDS011;1219;48.736;9.330;2022-11-20T08:14:43;2.30;;;2.20;;
2416;SDS011;1219;48.736;9.330;2022-11-20T08:17:09;2.63;;;2.43;;
2416;SDS011;1219;48.736;9.330;2022-11-20T08:19:35;2.67;;;2.47;;
2416;SDS011;1219;48.736;9.330;2022-11-20T08:22:01;3.13;;;2.93;;
2416;SDS011;1219;48.736;9.330;2022-11-20T08:24:27;3.40;;;2.23;;
2416;SDS011;1219;48.736;9.330;2022-11-20T08:26:53;3.30;;;2.83;;
2416;SDS011;1219;48.736;9.330;2022-11-20T08:29:19;3.03;;;2.83;;
2416;SDS011;1219;48.736;9.330;2022-11-20T08:31:45;2.53;;;2.33;;
2416;SDS011;1219;48.736;9.330;2022-11-20T08:34:11;2.53;;;2.33;;
2416;SDS011;1219;48.736;9.330;2022-11-20T08:36:37;2.93;;;2.63;;
2416;SDS011;1219;48.736;9.330;2022-11-20T08:39:03;2.70;;;2.50;;
2416;SDS011;1219;48.736;9.330;2022-11-20T08:41:29;2.60;;;2.50;;
2416;SDS011;1219;48.736;9.330;2022-11-20T08:43:59;2.60;;;2.50;;
2416;SDS011;1219;48.736;9.330;2022-11-20T08:46:26;3.00;;;2.80;;
2416;SDS011;1219;48.736;9.330;2022-11-20T08:48:52;2.57;;;2.37;;
2416;SDS011;1219;48.736;9.330;2022-11-20T08:51:19;2.40;;;2.30;;
2416;SDS011;1219;48.736;9.330;2022-11-20T08:53:45;2.90;;;2.70;;
2416;SDS011;1219;48.736;9.330;2022-11-20T08:56:13;2.50;;;2.30;;
2416;SDS011;1219;48.736;9.330;2022-11-20T08:58:39;3.17;;;2.97;;
2416;SDS011;1219;48.736;9.330;2022-11-20T09:01:06;4.60;;;2.50;;
2416;SDS011;1219;48.736;9.330;2022-11-20T09:03:32;2.60;;;2.40;;
2416;SDS011;1219;48.736;9.330;2022-11-20T09:05:59;3.70;;;2.10;;
2416;SDS011;1219;48.736;9.330;2022-11-20T09:08:25;4.07;;;2.40;;
2416;SDS011;1219;48.736;9.330;2022-11-20T09:10:55;2.40;;;2.27;;
2416;SDS011;1219;48.736;9.330;2022-11-20T09:13:21;2.20;;;2.10;;
2416;SDS011;1219;48.736;9.330;2022-11-20T09:15:52;2.80;;;2.60;;
2416;SDS011;1219;48.736;9.330;2022-11-20T09:18:18;2.80;;;2.60;;
2416;SDS011;1219;48.736;9.330;2022-11-20T09:20:44;2.40;;;2.23;;
2416;SDS011;1219;48.736;9.330;2022-11-20T09:23:10;2.50;;;2.30;;
2416;SDS011;1219;48.736;9.330;2022-11-20T09:25:36;2.60;;;2.40;;
2416;SDS011;1219;48.736;9.330;2022-11-20T09:28:02;2.23;;;2.13;;
2416;SDS011;1219;48.736;9.330;2022-11-20T09:30:28;2.30;;;2.10;;
2416;SDS011;1219;48.736;9.330;2022-11-20T09:32:55;1.83;;;1.73;;
2416;SDS011;1219;48.736;9.330;2022-11-20T09:35:21;2.40;;;2.20;;
2416;SDS011;1219;48.736;9.330;2022-11-20T09:37:47;2.67;;;2.40;;
2416;SDS011;1219;48.736;9.330;2022-11-20T09:40:21;2.23;;;2.03;;
2416;SDS011;1219;48.736;9.330;2022-11-20T09:47:58;1.60;;;1.50;;
2416;SDS011;1219;48.736;9.330;2022-11-20T09:50:32;1.67;;;1.57;;
2416;SDS011;1219;48.736;9.330;2022-11-20T09:55:34;1.80;;;1.70;;
2416;SDS011;1219;48.736;9.330;2022-11-20T09:58:01;1.60;;;1.50;;
2416;SDS011;1219;48.736;9.330;2022-11-20T10:00:30;1.53;;;1.43;;
2416;SDS011;1219;48.736;9.330;2022-11-20T10:05:25;1.60;;;1.50;;
2416;SDS011;1219;48.736;9.330;2022-11-20T10:10:42;1.50;;;1.40;;
2416;SDS011;1219;48.736;9.330;2022-11-20T10:16:03;2.00;;;1.63;;
2416;SDS011;1219;48.736;9.330;2022-11-20T10:18:38;1.40;;;1.30;;
2416;SDS011;1219;48.736;9.330;2022-11-20T10:21:11;1.50;;;1.40;;
2416;SDS011;1219;48.736;9.330;2022-11-20T10:28:48;1.50;;;1.40;;
2416;SDS011;1219;48.736;9.330;2022-11-20T10:31:25;1.60;;;1.50;;
2416;SDS011;1219;48.736;9.330;2022-11-20T10:33:54;1.47;;;1.37;;
2416;SDS011;1219;48.736;9.330;2022-11-20T10:38:47;1.60;;;1.50;;
2416;SDS011;1219;48.736;9.330;2022-11-20T10:41:17;1.63;;;1.53;;
2416;SDS011;1219;48.736;9.330;2022-11-20T10:43:51;1.50;;;1.40;;
2416;SDS011;1219;48.736;9.330;2022-11-20T10:46:21;1.60;;;1.50;;
2416;SDS011;1219;48.736;9.330;2022-11-20T10:48:47;1.60;;;1.50;;
2416;SDS011;1219;48.736;9.330;2022-11-20T10:56:40;1.63;;;1.47;;
2416;SDS011;1219;48.736;9.330;2022-11-20T11:01:42;1.50;;;1.40;;
2416;SDS011;1219;48.736;9.330;2022-11-20T11:06:46;1.40;;;1.30;;
2416;SDS011;1219;48.736;9.330;2022-11-20T11:09:18;1.70;;;1.60;;
2416;SDS011;1219;48.736;9.330;2022-11-20T11:11:45;2.30;;;1.50;;
2416;SDS011;1219;48.736;9.330;2022-11-20T11:14:12;1.60;;;1.50;;
2416;SDS011;1219;48.736;9.330;2022-11-20T11:16:51;1.60;;;1.50;;
2416;SDS011;1219;48.736;9.330;2022-11-20T11:19:17;1.60;;;1.50;;
2416;SDS011;1219;48.736;9.330;2022-11-20T11:21:50;1.50;;;1.40;;
2416;SDS011;1219;48.736;9.330;2022-11-20T11:24:21;1.50;;;1.40;;
2416;SDS011;1219;48.736;9.330;2022-11-20T11:27:01;1.90;;;1.80;;
2416;SDS011;1219;48.736;9.330;2022-11-20T11:29:32;1.60;;;1.50;;
2416;SDS011;1219;48.736;9.330;2022-11-20T11:32:05;1.87;;;1.77;;
2416;SDS011;1219;48.736;9.330;2022-11-20T11:34:31;1.70;;;1.60;;
2416;SDS011;1219;48.736;9.330;2022-11-20T11:36:57;1.60;;;1.50;;
2416;SDS011;1219;48.736;9.330;2022-11-20T11:39:24;1.57;;;1.47;;
2416;SDS011;1219;48.736;9.330;2022-11-20T11:41:51;1.93;;;1.80;;
2416;SDS011;1219;48.736;9.330;2022-11-20T11:47:02;1.73;;;1.40;;
2416;SDS011;1219;48.736;9.330;2022-11-20T11:49:29;1.83;;;1.73;;
2416;SDS011;1219;48.736;9.330;2022-11-20T11:54:38;2.27;;;2.07;;
2416;SDS011;1219;48.736;9.330;2022-11-20T11:57:12;1.57;;;1.47;;
2416;SDS011;1219;48.736;9.330;2022-11-20T11:59:43;1.73;;;1.63;;
2416;SDS011;1219;48.736;9.330;2022-11-20T12:02:24;1.93;;;1.50;;
2416;SDS011;1219;48.736;9.330;2022-11-20T12:04:58;1.93;;;1.83;;
2416;SDS011;1219;48.736;9.330;2022-11-20T12:07:38;3.03;;;2.00;;
2416;SDS011;1219;48.736;9.330;2022-11-20T12:10:06;1.60;;;1.50;;
2416;SDS011;1219;48.736;9.330;2022-11-20T12:12:39;2.67;;;1.70;;
2416;SDS011;1219;48.736;9.330;2022-11-20T12:15:09;1.50;;;1.40;;
2416;SDS011;1219;48.736;9.330;2022-11-20T12:17:36;2.83;;;1.40;;
2416;SDS011;1219;48.736;9.330;2022-11-20T12:20:02;1.90;;;1.80;;
2416;SDS011;1219;48.736;9.330;2022-11-20T12:30:12;1.50;;;1.40;;
2416;SDS011;1219;48.736;9.330;2022-11-20T12:44:28;1.93;;;1.33;;
2416;SDS011;1219;48.736;9.330;2022-11-20T12:47:21;1.57;;;1.47;;
2416;SDS011;1219;48.736;9.330;2022-11-20T12:49:56;1.60;;;1.27;;
2416;SDS011;1219;48.736;9.330;2022-11-20T12:52:41;2.90;;;1.63;;
2416;SDS011;1219;48.736;9.330;2022-11-20T12:55:16;1.50;;;1.40;;
2416;SDS011;1219;48.736;9.330;2022-11-20T12:57:50;1.50;;;1.40;;
2416;SDS011;1219;48.736;9.330;2022-11-20T13:00:22;1.60;;;1.50;;
2416;SDS011;1219;48.736;9.330;2022-11-20T13:05:34;3.63;;;1.40;;
2416;SDS011;1219;48.736;9.330;2022-11-20T13:08:02;1.83;;;1.50;;
2416;SDS011;1219;48.736;9.330;2022-11-20T13:10:31;1.97;;;1.70;;
2416;SDS011;1219;48.736;9.330;2022-11-20T13:13:01;1.50;;;1.40;;
2416;SDS011;1219;48.736;9.330;2022-11-20T13:15:37;1.50;;;1.40;;
2416;SDS011;1219;48.736;9.330;2022-11-20T13:18:08;1.50;;;1.40;;
2416;SDS011;1219;48.736;9.330;2022-11-20T13:20:35;3.23;;;1.47;;
2416;SDS011;1219;48.736;9.330;2022-11-20T13:23:01;1.40;;;1.30;;
2416;SDS011;1219;48.736;9.330;2022-11-20T13:25:28;1.77;;;1.40;;
2416;SDS011;1219;48.736;9.330;2022-11-20T13:27:55;1.63;;;1.53;;
2416;SDS011;1219;48.736;9.330;2022-11-20T13:30:22;1.60;;;1.50;;
2416;SDS011;1219;48.736;9.330;2022-11-20T13:32:49;1.60;;;1.50;;
2416;SDS011;1219;48.736;9.330;2022-11-20T13:35:23;1.40;;;1.30;;
2416;SDS011;1219;48.736;9.330;2022-11-20T13:37:59;1.43;;;1.33;;
2416;SDS011;1219;48.736;9.330;2022-11-20T13:40:25;1.53;;;1.20;;
2416;SDS011;1219;48.736;9.330;2022-11-20T13:42:55;1.60;;;1.50;;
2416;SDS011;1219;48.736;9.330;2022-11-20T13:45:29;1.57;;;1.30;;
2416;SDS011;1219;48.736;9.330;2022-11-20T13:47:56;1.40;;;1.30;;
2416;SDS011;1219;48.736;9.330;2022-11-20T13:50:38;1.40;;;1.30;;
2416;SDS011;1219;48.736;9.330;2022-11-20T13:53:20;1.40;;;1.27;;
2416;SDS011;1219;48.736;9.330;2022-11-20T13:56:00;1.57;;;1.47;;
2416;SDS011;1219;48.736;9.330;2022-11-20T14:01:26;1.80;;;1.50;;
2416;SDS011;1219;48.736;9.330;2022-11-20T14:03:52;1.50;;;1.40;;
2416;SDS011;1219;48.736;9.330;2022-11-20T14:06:26;1.40;;;1.30;;
2416;SDS011;1219;48.736;9.330;2022-11-20T14:08:53;1.67;;;1.40;;
2416;SDS011;1219;48.736;9.330;2022-11-20T14:11:20;1.60;;;1.40;;
2416;SDS011;1219;48.736;9.330;2022-11-20T14:14:03;1.30;;;1.20;;
2416;SDS011;1219;48.736;9.330;2022-11-20T14:16:30;1.40;;;1.30;;
2416;SDS011;1219;48.736;9.330;2022-11-20T14:18:56;2.37;;;1.40;;
2416;SDS011;1219;48.736;9.330;2022-11-20T14:21:26;1.30;;;1.20;;
2416;SDS011;1219;48.736;9.330;2022-11-20T14:23:53;2.40;;;1.50;;
2416;SDS011;1219;48.736;9.330;2022-11-20T14:26:19;1.60;;;1.50;;
2416;SDS011;1219;48.736;9.330;2022-11-20T14:28:47;1.97;;;1.87;;
2416;SDS011;1219;48.736;9.330;2022-11-20T14:31:17;1.67;;;1.50;;
2416;SDS011;1219;48.736;9.330;2022-11-20T14:33:52;1.70;;;1.60;;
2416;SDS011;1219;48.736;9.330;2022-11-20T14:36:23;1.60;;;1.50;;
2416;SDS011;1219;48.736;9.330;2022-11-20T14:38:50;2.17;;;1.40;;
2416;SDS011;1219;48.736;9.330;2022-11-20T14:41:18;1.50;;;1.40;;
2416;SDS011;1219;48.736;9.330;2022-11-20T14:44:02;1.43;;;1.33;;
2416;SDS011;1219;48.736;9.330;2022-11-20T14:46:28;1.50;;;1.40;;
2416;SDS011;1219;48.736;9.330;2022-11-20T14:48:56;1.53;;;1.43;;
2416;SDS011;1219;48.736;9.330;2022-11-20T14:51:26;2.80;;;2.03;;
2416;SDS011;1219;48.736;9.330;2022-11-20T14:53:52;1.47;;;1.37;;
2416;SDS011;1219;48.736;9.330;2022-11-20T14:56:22;1.60;;;1.50;;
2416;SDS011;1219;48.736;9.330;2022-11-20T14:58:55;1.70;;;1.60;;
2416;SDS011;1219;48.736;9.330;2022-11-20T15:01:25;1.60;;;1.50;;
2416;SDS011;1219;48.736;9.330;2022-11-20T15:03:58;2.00;;;1.67;;
2416;SDS011;1219;48.736;9.330;2022-11-20T15:06:25;2.00;;;1.63;;
2416;SDS011;1219;48.736;9.330;2022-11-20T15:08:52;1.57;;;1.47;;
2416;SDS011;1219;48.736;9.330;2022-11-20T15:11:19;1.80;;;1.70;;
2416;SDS011;1219;48.736;9.330;2022-11-20T15:13:45;1.93;;;1.83;;
2416;SDS011;1219;48.736;9.330;2022-11-20T15:16:18;5.83;;;3.50;;
2416;SDS011;1219;48.736;9.330;2022-11-20T15:18:44;1.93;;;1.83;;
2416;SDS011;1219;48.736;9.330;2022-11-20T15:21:14;3.70;;;3.50;;
2416;SDS011;1219;48.736;9.330;2022-11-20T15:23:40;3.83;;;3.53;;
2416;SDS011;1219;48.736;9.330;2022-11-20T15:26:06;3.00;;;2.80;;
2416;SDS011;1219;48.736;9.330;2022-11-20T15:28:34;3.83;;;3.27;;
2416;SDS011;1219;48.736;9.330;2022-11-20T15:31:02;2.63;;;2.50;;
2416;SDS011;1219;48.736;9.330;2022-11-20T15:33:29;2.10;;;1.90;;
2416;SDS011;1219;48.736;9.330;2022-11-20T15:35:55;2.33;;;2.20;;
2416;SDS011;1219;48.736;9.330;2022-11-20T15:38:21;2.00;;;1.90;;
2416;SDS011;1219;48.736;9.330;2022-11-20T15:40:47;2.03;;;1.93;;
2416;SDS011;1219;48.736;9.330;2022-11-20T15:43:13;2.00;;;1.90;;
2416;SDS011;1219;48.736;9.330;2022-11-20T15:45:40;3.33;;;1.70;;
2416;SDS011;1219;48.736;9.330;2022-11-20T15:53:27;1.90;;;1.80;;
2416;SDS011;1219;48.736;9.330;2022-11-20T15:55:53;2.27;;;2.07;;
2416;SDS011;1219;48.736;9.330;2022-11-20T15:58:19;1.90;;;1.80;;
2416;SDS011;1219;48.736;9.330;2022-11-20T16:00:45;2.23;;;2.00;;
2416;SDS011;1219;48.736;9.330;2022-11-20T16:03:12;2.43;;;2.23;;
2416;SDS011;1219;48.736;9.330;2022-11-20T16:05:38;2.70;;;2.30;;
2416;SDS011;1219;48.736;9.330;2022-11-20T16:08:04;4.97;;;3.33;;
2416;SDS011;1219;48.736;9.330;2022-11-20T16:10:30;4.87;;;4.40;;
2416;SDS011;1219;48.736;9.330;2022-11-20T16:12:56;3.23;;;3.03;;
2416;SDS011;1219;48.736;9.330;2022-11-20T16:15:41;3.03;;;2.70;;
2416;SDS011;1219;48.736;9.330;2022-11-20T16:18:10;4.77;;;3.30;;
2416;SDS011;1219;48.736;9.330;2022-11-20T16:20:36;2.23;;;2.13;;
2416;SDS011;1219;48.736;9.330;2022-11-20T16:23:02;3.90;;;2.53;;
2416;SDS011;1219;48.736;9.330;2022-11-20T16:25:29;3.03;;;2.83;;
2416;SDS011;1219;48.736;9.330;2022-11-20T16:27:55;2.43;;;2.23;;
2416;SDS011;1219;48.736;9.330;2022-11-20T16:30:21;2.53;;;2.27;;
2416;SDS011;1219;48.736;9.330;2022-11-20T16:32:47;2.80;;;2.60;;